NCAR-RAP Real-Time Weather Data

Output produced by METARs form (08 May 2021  01:44 UTC)
found at http://weather.rap.ucar.edu/surface/
 
KMDW 080053Z 03012KT 10SM FEW075 07/01 A3006 RMK AO2 SLP182 T00720006
KMDW 072353Z 04015KT 10SM FEW020 SCT080 09/01 A3004 RMK AO2 SLP178 T00890011 10150 20089 53011
KMDW 072253Z 04015G24KT 10SM BKN080 10/00 A3003 RMK AO2 SLP173 T01000000
KMDW 072153Z 03013G18KT 10SM BKN080 12/00 A3002 RMK AO2 SLP168 T01220000
KMDW 072053Z 03015G22KT 10SM BKN080 12/00 A3001 RMK AO2 SLP166 T01170000 53013
KMDW 071953Z 05015G24KT 10SM BKN070 12/01 A3000 RMK AO2 SLP162 T01170011
KMDW 071853Z COR 04012KT 10SM BKN070 13/02 A2998 RMK AO2 SLP155 T01280017
KMDW 071753Z 31012G19KT 10SM SCT065 BKN080 15/M01 A2997 RMK AO2 SLP151 60000 T01501011 10156 20078 58001
KMDW 071653Z 33012KT 10SM BKN050 BKN070 14/02 A2998 RMK AO2 SLP153 T01440017
KMDW 071553Z 31011KT 10SM SCT045 BKN060 14/02 A2997 RMK AO2 SLP152 T01390017
KMDW 071453Z 31010KT 10SM FEW045 BKN070 13/01 A2998 RMK AO2 RAE01 SLP152 P0000 60000 T01330006 58004
KMDW 071353Z 28007KT 10SM -RA FEW055 BKN070 BKN085 11/02 A2999 RMK AO2 RAB49 SLP157 P0000 T01060017
KMDW 071253Z 26005KT 10SM BKN070 BKN090 09/02 A2999 RMK AO2 SLP159 T00940022
KMDW 071153Z 26005KT 10SM FEW045 SCT065 BKN095 08/02 A2999 RMK AO2 SLP158 70007 T00780017 10078 20056 56002 $
KMDW 071053Z 25007KT 10SM FEW095 SCT120 06/01 A2999 RMK AO2 SLP159 T00610006 $